Time;durP1;ratioP1;P1;durP2;ratioP2;P2;SDS_P1;SDS_P2;PMS_P1;PMS_P2;Temp;Humidity;BMP_temperature;BMP_pressure;BME280_temperature;BME280_humidity;BME280_pressure;Samples;Min_cycle;Max_cycle;Signal;HPM_P1;HPM_P2
2023/03/12 00:00:49;;;;;;;;;5.00;3.00;;;;;11.78;100.00;100762.09;5077572;28;45482;-76
2023/03/12 00:03:15;;;;;;;;;8.25;4.00;;;;;11.79;100.00;100779.75;5077961;27;45294;-77
2023/03/12 00:05:41;;;;;;;;;6.33;5.00;;;;;11.76;100.00;100769.13;5078172;27;45484;-78
2023/03/12 00:08:07;;;;;;;;;5.67;4.67;;;;;11.77;100.00;100770.00;5077493;27;46613;-77
2023/03/12 00:10:33;;;;;;;;;4.67;3.33;;;;;11.76;100.00;100763.84;5077633;27;46406;-78
2023/03/12 00:12:59;;;;;;;;;5.67;4.33;;;;;11.77;100.00;100770.00;5077788;27;57711;-76
2023/03/12 00:15:24;;;;;;;;;7.67;5.00;;;;;11.79;100.00;100773.56;5077851;27;45413;-76
2023/03/12 00:17:50;;;;;;;;;6.33;4.00;;;;;11.79;100.00;100771.81;5076310;27;70315;-77
2023/03/12 00:20:16;;;;;;;;;9.00;7.00;;;;;11.84;100.00;100763.06;5077764;27;45322;-78
2023/03/12 00:22:41;;;;;;;;;5.00;4.00;;;;;11.86;100.00;100756.00;5077612;27;45472;-77
2023/03/12 00:25:11;;;;;;;;;8.00;5.33;;;;;11.85;100.00;100749.81;5077757;27;45402;-79
2023/03/12 00:27:37;;;;;;;;;5.00;2.00;;;;;11.88;100.00;100744.56;5179885;22;46847;-77
2023/03/12 00:30:04;;;;;;;;;10.00;6.33;;;;;11.88;100.00;100744.56;5056441;28;46593;-78
2023/03/12 00:32:32;;;;;;;;;8.00;4.00;;;;;11.88;100.00;100748.94;5048298;28;45305;-77
2023/03/12 00:34:57;;;;;;;;;7.33;4.67;;;;;11.86;100.00;100751.56;5056839;28;45370;-77
2023/03/12 00:37:22;;;;;;;;;10.67;6.00;;;;;11.82;100.00;100751.56;5056850;28;69728;-78
2023/03/12 00:39:48;;;;;;;;;5.33;4.00;;;;;11.75;100.00;100748.84;5056353;28;65406;-77
2023/03/12 00:42:13;;;;;;;;;6.33;4.00;;;;;11.69;100.00;100759.41;5056502;28;63967;-78
2023/03/12 00:44:39;;;;;;;;;9.67;7.00;;;;;11.70;100.00;100763.81;5057145;28;45453;-76
2023/03/12 00:47:04;;;;;;;;;10.00;7.00;;;;;11.72;100.00;100766.50;5055581;28;45995;-78
2023/03/12 00:49:30;;;;;;;;;7.67;6.00;;;;;11.78;100.00;100777.09;5056766;28;45372;-78
2023/03/12 00:51:55;;;;;;;;;9.00;5.00;;;;;11.81;100.00;100779.75;5057488;28;45263;-77
2023/03/12 00:54:21;;;;;;;;;8.67;4.00;;;;;11.84;100.00;100785.09;5055808;28;45240;-77
2023/03/12 00:56:47;;;;;;;;;4.00;4.00;;;;;11.84;100.00;100771.00;5047654;28;46595;-78
2023/03/12 00:59:13;;;;;;;;;9.00;6.33;;;;;11.87;100.00;100784.22;5054580;28;45454;-76
2023/03/12 01:01:39;;;;;;;;;7.00;3.00;;;;;11.85;100.00;100778.03;5055910;28;45513;-76
2023/03/12 01:04:04;;;;;;;;;4.00;4.00;;;;;11.85;100.00;100780.69;5056287;28;45341;-77
2023/03/12 01:06:29;;;;;;;;;9.67;4.00;;;;;11.85;100.00;100792.16;5056300;28;46551;-77
2023/03/12 01:08:55;;;;;;;;;4.67;4.00;;;;;11.84;100.00;100787.75;5053508;28;67463;-78
2023/03/12 01:11:21;;;;;;;;;3.00;3.00;;;;;11.81;100.00;100787.69;5055319;28;45484;-77
2023/03/12 01:13:47;;;;;;;;;6.33;4.67;;;;;11.79;100.00;100784.16;5055183;28;45633;-77
2023/03/12 01:16:12;;;;;;;;;6.00;5.00;;;;;11.74;100.00;100778.84;5051987;28;45597;-78
2023/03/12 01:18:38;;;;;;;;;9.00;5.00;;;;;11.72;100.00;100787.66;5053462;28;45513;-77
2023/03/12 01:21:03;;;;;;;;;9.00;3.67;;;;;11.69;100.00;100782.31;5047864;28;64873;-76
2023/03/12 01:23:29;;;;;;;;;11.67;6.67;;;;;11.66;100.00;100796.41;5038055;28;45597;-77
2023/03/12 01:25:54;;;;;;;;;5.00;3.67;;;;;11.64;100.00;100795.53;5047605;28;46788;-76
2023/03/12 01:28:23;;;;;;;;;6.67;4.67;;;;;11.61;100.00;100784.03;5049887;28;45853;-76
2023/03/12 01:30:49;;;;;;;;;9.00;7.00;;;;;11.57;100.00;100792.84;5048129;28;46202;-77
2023/03/12 01:33:15;;;;;;;;;8.67;5.00;;;;;11.57;100.00;100790.19;5054025;28;56293;-76
2023/03/12 01:35:41;;;;;;;;;7.33;5.00;;;;;11.54;100.00;100797.22;5054731;28;47557;-77
2023/03/12 01:38:08;;;;;;;;;3.67;3.67;;;;;11.54;100.00;100793.69;5051704;28;45847;-77
2023/03/12 01:40:34;;;;;;;;;8.00;4.33;;;;;11.52;100.00;100798.09;5054155;28;45336;-77
2023/03/12 01:43:21;;;;;;;;;8.67;4.00;;;;;11.46;100.00;100792.78;5055175;28;45796;-78
2023/03/12 01:46:15;;;;;;;;;11.67;3.00;;;;;11.44;100.00;100790.09;5053574;28;46590;-77
2023/03/12 01:48:43;;;;;;;;;6.33;4.00;;;;;11.39;100.00;100785.66;5048109;28;45575;-77
2023/03/12 01:51:11;;;;;;;;;6.33;4.00;;;;;11.37;100.00;100783.00;5054914;28;45474;-78
2023/03/12 01:53:38;;;;;;;;;4.67;4.67;;;;;11.35;100.00;100781.25;5055776;28;45521;-77
2023/03/12 01:56:04;;;;;;;;;5.00;3.33;;;;;11.31;100.00;100780.31;5054891;28;47862;-78
2023/03/12 01:58:32;;;;;;;;;8.00;5.33;;;;;11.27;100.00;100779.41;5055468;28;45496;-77
2023/03/12 02:00:58;;;;;;;;;8.00;4.00;;;;;11.27;100.00;100789.09;5055794;28;45533;-77
2023/03/12 02:03:23;;;;;;;;;7.33;4.33;;;;;11.24;100.00;100787.34;5055401;28;45520;-78
2023/03/12 02:05:57;;;;;;;;;4.33;4.33;;;;;11.22;100.00;100780.25;5052863;28;68789;-78
2023/03/12 02:08:23;;;;;;;;;5.75;4.00;;;;;11.19;100.00;100773.19;5054081;28;45581;-77
2023/03/12 02:10:49;;;;;;;;;7.00;4.33;;;;;11.18;100.00;100778.44;5055583;28;45245;-77
2023/03/12 02:13:14;;;;;;;;;8.00;3.00;;;;;11.14;100.00;100779.31;5055492;28;45404;-77
2023/03/12 02:15:40;;;;;;;;;3.33;3.33;;;;;11.10;100.00;100781.06;5053555;28;46537;-76
2023/03/12 02:18:08;;;;;;;;;6.33;3.00;;;;;11.08;100.00;100781.88;5053866;28;45410;-77
2023/03/12 02:20:41;;;;;;;;;4.67;3.00;;;;;11.05;100.00;100784.53;5053851;28;45553;-77
2023/03/12 02:23:26;;;;;;;;;7.00;4.00;;;;;11.07;100.00;100790.69;5054261;28;45324;-77
2023/03/12 02:25:53;;;;;;;;;2.33;2.33;;;;;11.09;100.00;100796.91;5053784;28;47843;-77
2023/03/12 02:28:22;;;;;;;;;8.00;3.33;;;;;11.10;100.00;100796.91;5054762;28;45355;-77
2023/03/12 02:30:49;;;;;;;;;4.00;2.00;;;;;11.14;100.00;100800.47;5053732;28;45290;-77
2023/03/12 02:33:15;;;;;;;;;7.33;2.00;;;;;11.18;100.00;100794.31;5055316;28;45624;-76
2023/03/12 02:35:40;;;;;;;;;10.33;3.00;;;;;11.25;100.00;100798.78;5054730;28;47348;-78
2023/03/12 02:38:40;;;;;;;;;5.00;3.00;;;;;11.33;100.00;100806.75;5054824;28;51234;-77
2023/03/12 02:41:21;;;;;;;;;6.33;4.00;;;;;11.39;100.00;100798.88;5057498;28;45207;-77
2023/03/12 02:43:58;;;;;;;;;3.67;0.33;;;;;11.44;100.00;100808.59;5058787;28;45338;-78
2023/03/12 02:46:24;;;;;;;;;3.33;3.33;;;;;11.48;100.00;100802.47;5058212;28;46454;-77
2023/03/12 02:48:50;;;;;;;;;8.00;3.00;;;;;11.52;100.00;100792.81;5058301;28;45507;-78
2023/03/12 02:51:15;;;;;;;;;3.00;3.00;;;;;11.58;100.00;100794.59;5058103;28;46142;-77
2023/03/12 02:53:41;;;;;;;;;5.00;2.00;;;;;11.61;100.00;100805.19;5057879;28;47132;-77
2023/03/12 02:56:06;;;;;;;;;4.00;4.00;;;;;11.63;100.00;100809.63;5055419;28;45404;-77
2023/03/12 02:58:32;;;;;;;;;8.67;4.00;;;;;11.65;100.00;100802.56;5057176;28;64956;-77
2023/03/12 03:00:57;;;;;;;;;4.67;3.00;;;;;11.68;100.00;100815.84;5057986;28;45422;-77
2023/03/12 03:03:23;;;;;;;;;5.67;5.67;;;;;11.70;100.00;100805.25;5057005;28;45554;-78
2023/03/12 03:05:48;;;;;;;;;5.00;3.00;;;;;11.72;100.00;100801.75;5058069;28;45434;-77
2023/03/12 03:08:13;;;;;;;;;8.00;3.67;;;;;11.75;100.00;100811.47;5058225;28;45380;-77
2023/03/12 03:10:39;;;;;;;;;8.00;2.67;;;;;11.76;100.00;100800.88;5057595;28;60486;-77
2023/03/12 03:13:04;;;;;;;;;3.67;3.00;;;;;11.76;100.00;100800.88;5057047;28;48285;-77
2023/03/12 03:15:30;;;;;;;;;8.67;4.67;;;;;11.77;100.00;100805.31;5056727;28;69618;-78
2023/03/12 03:17:55;;;;;;;;;2.67;2.33;;;;;11.82;100.00;100805.34;5057409;28;45516;-77
2023/03/12 03:20:21;;;;;;;;;3.00;0.00;;;;;11.83;100.00;100800.97;5057157;28;65626;-77
2023/03/12 03:22:47;;;;;;;;;3.33;2.67;;;;;11.85;100.00;100802.72;5057875;28;45497;-77
2023/03/12 03:25:12;;;;;;;;;4.33;3.00;;;;;11.85;100.00;100808.03;5057442;28;46652;-76
2023/03/12 03:27:37;;;;;;;;;2.00;2.00;;;;;11.83;100.00;100814.19;5056875;28;68672;-77
2023/03/12 03:30:04;;;;;;;;;6.67;2.33;;;;;11.80;100.00;100818.53;5057135;28;45387;-77
2023/03/12 03:32:29;;;;;;;;;6.67;2.00;;;;;11.77;100.00;100833.50;5057955;28;45577;-77
2023/03/12 03:34:54;;;;;;;;;3.33;2.67;;;;;11.74;100.00;100828.22;5057313;28;63137;-77
2023/03/12 03:37:20;;;;;;;;;6.00;3.00;;;;;11.71;100.00;100836.09;5057882;28;46031;-78
2023/03/12 03:39:45;;;;;;;;;6.00;3.33;;;;;11.66;100.00;100828.13;5056786;28;63947;-77
2023/03/12 03:42:10;;;;;;;;;5.67;2.00;;;;;11.64;100.00;100847.53;5057854;28;56698;-78
2023/03/12 03:44:36;;;;;;;;;3.67;2.00;;;;;11.59;100.00;100841.31;5056352;28;70945;-77
2023/03/12 03:47:01;;;;;;;;;4.00;2.67;;;;;11.57;100.00;100849.25;5056313;28;68097;-76
2023/03/12 03:49:26;;;;;;;;;4.00;3.00;;;;;11.51;100.00;100842.16;5057721;28;45154;-77
2023/03/12 03:51:52;;;;;;;;;7.67;3.33;;;;;11.47;100.00;100844.78;5055890;28;62015;-76
2023/03/12 03:54:17;;;;;;;;;7.33;3.00;;;;;11.47;100.00;100850.94;5054814;28;46518;-77
2023/03/12 03:56:43;;;;;;;;;5.67;3.00;;;;;11.42;100.00;100857.06;5056956;28;45435;-78
2023/03/12 03:59:09;;;;;;;;;9.67;3.00;;;;;11.43;100.00;100853.56;5057064;28;50876;-78
2023/03/12 04:01:35;;;;;;;;;8.00;2.00;;;;;11.42;100.00;100862.38;5056520;28;59503;-78
2023/03/12 04:04:01;;;;;;;;;8.33;3.00;;;;;11.40;100.00;100862.34;5057311;28;46663;-77
2023/03/12 04:06:28;;;;;;;;;8.00;3.00;;;;;11.38;100.00;100872.00;5057500;28;45299;-78
2023/03/12 04:08:55;;;;;;;;;8.00;2.00;;;;;11.38;100.00;100887.00;5056882;28;45632;-78
2023/03/12 04:11:21;;;;;;;;;7.00;2.00;;;;;11.40;100.00;100885.25;5057038;28;47027;-78
2023/03/12 04:13:50;;;;;;;;;3.00;2.00;;;;;11.43;100.00;100890.56;5056838;28;46722;-77
2023/03/12 04:16:16;;;;;;;;;4.00;2.00;;;;;11.44;100.00;100877.34;5054973;28;45386;-76
2023/03/12 04:18:41;;;;;;;;;6.00;4.00;;;;;11.50;100.00;100888.00;5057478;28;45287;-77
2023/03/12 04:21:08;;;;;;;;;5.33;4.00;;;;;11.51;100.00;100889.78;5054874;28;56399;-77
2023/03/12 04:23:34;;;;;;;;;3.67;1.33;;;;;11.50;100.00;100895.94;5056981;28;47718;-77
2023/03/12 04:25:59;;;;;;;;;9.00;2.00;;;;;11.50;100.00;100898.56;5056801;28;45391;-76
2023/03/12 04:28:25;;;;;;;;;3.00;2.00;;;;;11.48;100.00;100889.72;5056942;28;45399;-77
2023/03/12 04:30:58;;;;;;;;;7.33;3.00;;;;;11.49;100.00;100895.91;5056709;28;45637;-77
2023/03/12 04:33:25;;;;;;;;;3.00;3.00;;;;;11.49;100.00;100909.13;5056480;28;47545;-77
2023/03/12 04:35:51;;;;;;;;;3.00;3.00;;;;;11.49;100.00;100912.66;5056860;28;45358;-77
2023/03/12 04:38:18;;;;;;;;;3.00;1.33;;;;;11.50;100.00;100927.66;5056559;28;45362;-76
2023/03/12 04:40:43;;;;;;;;;5.33;2.67;;;;;11.52;100.00;100928.56;5056702;28;45584;-78
2023/03/12 04:43:08;;;;;;;;;3.33;2.00;;;;;11.52;100.00;100928.56;5055924;28;73486;-78
2023/03/12 04:45:34;;;;;;;;;4.67;3.00;;;;;11.54;100.00;100931.19;5055282;28;66195;-77
2023/03/12 04:47:59;;;;;;;;;5.00;2.00;;;;;11.54;100.00;100929.44;5055942;28;66155;-77
2023/03/12 04:50:24;;;;;;;;;8.33;2.00;;;;;11.53;100.00;100926.78;5055547;28;64116;-77
2023/03/12 04:52:50;;;;;;;;;5.00;1.33;;;;;11.52;100.00;100928.56;5056509;28;45606;-77
2023/03/12 04:55:15;;;;;;;;;4.33;2.00;;;;;11.55;100.00;100922.38;5053826;28;45488;-77
2023/03/12 04:57:40;;;;;;;;;3.67;1.67;;;;;11.55;100.00;100925.03;5055943;28;45381;-77
2023/03/12 05:00:11;;;;;;;;;3.67;2.00;;;;;11.58;100.00;100933.00;5054636;28;45506;-77
2023/03/12 05:02:37;;;;;;;;;8.67;1.67;;;;;11.58;100.00;100932.13;5054560;28;46582;-78
2023/03/12 05:05:02;;;;;;;;;4.00;2.00;;;;;11.58;100.00;100926.84;5055573;28;47020;-77
2023/03/12 05:07:28;;;;;;;;;4.67;2.67;;;;;11.60;100.00;100933.00;5056099;28;45326;-77
2023/03/12 05:09:53;;;;;;;;;4.00;2.00;;;;;11.59;100.00;100936.53;5055752;28;61983;-78
2023/03/12 05:12:18;;;;;;;;;1.00;1.00;;;;;11.59;100.00;100934.78;5055522;28;53265;-78
2023/03/12 05:14:44;;;;;;;;;7.33;2.00;;;;;11.60;100.00;100957.69;5055407;28;67057;-77
2023/03/12 05:17:09;;;;;;;;;6.67;2.67;;;;;11.59;100.00;100952.41;5055395;28;63890;-77
2023/03/12 05:19:34;;;;;;;;;9.67;2.00;;;;;11.63;100.00;100960.38;5055243;28;57068;-77
2023/03/12 05:22:00;;;;;;;;;8.00;1.00;;;;;11.63;100.00;100947.16;5054909;28;68985;-77
2023/03/12 05:24:26;;;;;;;;;4.00;2.33;;;;;11.65;100.00;100942.75;5053841;28;67917;-77
2023/03/12 05:26:51;;;;;;;;;3.33;2.33;;;;;11.68;100.00;100953.38;5056100;28;45287;-78
2023/03/12 05:29:17;;;;;;;;;4.67;2.33;;;;;11.67;100.00;100951.59;5055941;28;46317;-77
2023/03/12 05:31:42;;;;;;;;;4.00;1.67;;;;;11.69;100.00;100959.53;5055322;28;47325;-78
2023/03/12 05:34:11;;;;;;;;;7.33;2.00;;;;;11.68;100.00;100957.78;5055551;28;45434;-77
2023/03/12 05:36:36;;;;;;;;;8.67;2.00;;;;;11.68;100.00;100965.72;5055442;28;45533;-77
2023/03/12 05:39:02;;;;;;;;;10.33;4.00;;;;;11.70;100.00;100971.88;5056402;28;45203;-77
2023/03/12 05:41:28;;;;;;;;;6.00;3.00;;;;;11.70;100.00;100975.41;5055420;28;45379;-78
2023/03/12 05:43:55;;;;;;;;;3.67;2.00;;;;;11.73;100.00;100975.47;5056227;28;45390;-78
2023/03/12 05:46:21;;;;;;;;;4.00;1.67;;;;;11.74;100.00;100981.63;5055305;28;45351;-77
2023/03/12 05:48:46;;;;;;;;;9.33;1.33;;;;;11.77;100.00;100981.63;5055716;28;45668;-78
2023/03/12 05:51:11;;;;;;;;;7.00;2.00;;;;;11.79;100.00;100979.91;5055614;28;46545;-77
2023/03/12 05:53:37;;;;;;;;;3.67;2.00;;;;;11.81;100.00;100967.56;5054739;28;68203;-77
2023/03/12 05:56:04;;;;;;;;;3.67;2.00;;;;;11.82;100.00;100971.13;5054752;28;61599;-77
2023/03/12 05:58:30;;;;;;;;;3.00;1.00;;;;;11.84;100.00;100961.47;5055847;28;45224;-77
2023/03/12 06:00:56;;;;;;;;;4.33;1.00;;;;;11.87;100.00;100972.06;5055504;28;46784;-79
2023/03/12 06:03:21;;;;;;;;;5.67;2.00;;;;;11.89;100.00;100983.56;5055909;28;45225;-77
2023/03/12 06:05:47;;;;;;;;;3.00;1.33;;;;;11.89;100.00;100979.16;5054902;28;45538;-77
2023/03/12 06:08:12;;;;;;;;;7.00;2.00;;;;;11.89;100.00;100996.78;5055671;28;45453;-78
2023/03/12 06:10:38;;;;;;;;;5.00;2.00;;;;;11.90;100.00;101001.19;5055745;28;45782;-79
2023/03/12 06:13:04;;;;;;;;;4.00;2.00;;;;;11.89;100.00;101000.31;5053732;28;45385;-77
2023/03/12 06:15:29;;;;;;;;;8.67;2.33;;;;;11.91;100.00;101006.50;5056434;28;45249;-77
2023/03/12 06:17:55;;;;;;;;;3.33;0.33;;;;;11.89;100.00;100992.38;5058587;28;45611;-77
2023/03/12 06:20:20;;;;;;;;;4.00;1.67;;;;;11.90;100.00;100999.44;5058914;28;47346;-77
2023/03/12 06:22:45;;;;;;;;;5.33;2.33;;;;;11.89;100.00;101002.09;5058535;28;45407;-77
2023/03/12 06:25:11;;;;;;;;;3.00;1.33;;;;;11.87;100.00;101009.97;5058055;28;67102;-77
2023/03/12 06:27:36;;;;;;;;;3.67;2.00;;;;;11.83;100.00;100997.63;5058879;28;45589;-77
2023/03/12 06:30:03;;;;;;;;;3.67;0.67;;;;;11.84;100.00;100998.50;5058512;28;47092;-77
2023/03/12 06:32:28;;;;;;;;;5.33;2.33;;;;;11.83;100.00;101002.91;5058603;28;45363;-78
2023/03/12 06:34:53;;;;;;;;;5.33;2.00;;;;;11.83;100.00;101008.22;5058679;28;45355;-77
2023/03/12 06:37:19;;;;;;;;;4.67;1.33;;;;;11.84;100.00;101009.09;5057501;28;56671;-76
2023/03/12 06:39:44;;;;;;;;;6.00;3.00;;;;;11.84;100.00;100995.88;5057351;28;70876;-77
2023/03/12 06:42:11;;;;;;;;;4.33;2.00;;;;;11.85;100.00;101002.91;5058355;28;45319;-76
2023/03/12 06:44:37;;;;;;;;;2.33;1.33;;;;;11.85;100.00;101001.16;5054419;28;45560;-77
2023/03/12 06:47:02;;;;;;;;;8.67;2.00;;;;;11.92;100.00;101017.97;5058734;28;45324;-77
2023/03/12 06:49:31;;;;;;;;;2.33;2.33;;;;;11.96;100.00;101025.06;5057991;28;46835;-78
2023/03/12 06:51:56;;;;;;;;;12.00;1.67;;;;;12.00;100.00;101040.97;5058678;28;45378;-77
2023/03/12 06:54:21;;;;;;;;;5.67;1.33;;;;;12.03;100.00;101038.34;5056788;28;65680;-77
2023/03/12 06:56:47;;;;;;;;;5.33;2.00;;;;;12.06;100.00;101041.03;5057677;28;63673;-78
2023/03/12 06:59:12;;;;;;;;;3.67;2.00;;;;;12.09;100.00;101039.28;5057518;28;70398;-77
2023/03/12 07:01:37;;;;;;;;;2.33;1.67;;;;;12.12;100.00;101040.19;5057023;28;66652;-77
2023/03/12 07:04:03;;;;;;;;;5.33;2.00;;;;;12.14;100.00;101029.59;5058518;28;45307;-77
2023/03/12 07:06:28;;;;;;;;;5.33;3.00;;;;;12.14;100.00;101029.59;5058513;28;45422;-77
2023/03/12 07:08:53;;;;;;;;;11.00;3.00;;;;;12.18;100.00;101039.34;5057954;28;45791;-76
2023/03/12 07:11:19;;;;;;;;;4.00;2.33;;;;;12.18;100.00;101040.22;5057970;28;45338;-77
2023/03/12 07:13:44;;;;;;;;;8.33;2.67;;;;;12.19;100.00;101031.41;5057994;28;45399;-78
2023/03/12 07:16:10;;;;;;;;;4.67;3.00;;;;;12.19;100.00;101038.47;5057972;28;45971;-77
2023/03/12 07:18:36;;;;;;;;;3.00;2.00;;;;;12.20;100.00;101045.56;5057449;28;46403;-77
2023/03/12 07:21:02;;;;;;;;;3.00;2.33;;;;;12.17;100.00;101058.75;5057564;28;47270;-77
2023/03/12 07:23:27;;;;;;;;;6.33;1.67;;;;;12.20;100.00;101040.28;5058136;28;45403;-78
2023/03/12 07:25:53;;;;;;;;;6.00;2.33;;;;;12.15;100.00;101042.00;5057520;28;45446;-78
2023/03/12 07:28:19;;;;;;;;;6.33;1.00;;;;;12.08;100.00;101035.75;5057226;28;55327;-77
2023/03/12 07:30:49;;;;;;;;;9.33;2.00;;;;;12.04;100.00;101045.44;5057663;28;45607;-80
2023/03/12 07:33:15;;;;;;;;;7.33;2.67;;;;;12.03;100.00;101053.34;5057596;28;47107;-77
2023/03/12 07:35:41;;;;;;;;;5.00;2.00;;;;;12.01;100.00;101071.84;5057779;28;45537;-77
2023/03/12 07:38:06;;;;;;;;;3.00;3.00;;;;;12.03;100.00;101072.75;5056512;28;67505;-77
2023/03/12 07:40:32;;;;;;;;;4.00;2.00;;;;;12.04;100.00;101082.50;5057674;28;46897;-77
2023/03/12 07:42:58;;;;;;;;;8.00;1.00;;;;;12.04;100.00;101081.59;5057709;28;45395;-78
2023/03/12 07:45:23;;;;;;;;;5.33;3.00;;;;;12.03;100.00;101078.03;5057101;28;64595;-78
2023/03/12 07:47:49;;;;;;;;;8.67;2.00;;;;;12.05;100.00;101086.91;5056413;28;69992;-77
2023/03/12 07:50:16;;;;;;;;;4.33;2.67;;;;;12.13;100.00;101086.06;5056892;28;45334;-77
2023/03/12 07:52:41;;;;;;;;;3.00;3.00;;;;;12.25;100.00;101087.09;5054344;28;45311;-77
2023/03/12 07:55:07;;;;;;;;;4.00;2.00;;;;;12.38;100.00;101087.16;5052531;28;45673;-77
2023/03/12 07:57:33;;;;;;;;;4.67;1.00;;;;;12.47;100.00;101084.59;5057163;28;47380;-77
2023/03/12 07:59:58;;;;;;;;;1.67;1.00;;;;;12.54;100.00;101082.00;5056561;28;65370;-79
2023/03/12 08:02:23;;;;;;;;;7.00;3.00;;;;;12.61;100.00;101077.63;5056836;28;50975;-79
2023/03/12 08:04:49;;;;;;;;;9.00;2.00;;;;;12.64;100.00;101066.16;5056950;28;52646;-79
2023/03/12 08:07:14;;;;;;;;;1.67;1.00;;;;;12.68;100.00;101075.91;5056863;28;53949;-77
2023/03/12 08:09:39;;;;;;;;;13.67;2.67;;;;;12.74;100.00;101075.94;5056867;28;45335;-77
2023/03/12 08:12:06;;;;;;;;;13.67;2.00;;;;;12.80;100.00;101081.28;5056697;28;45301;-79
2023/03/12 08:14:32;;;;;;;;;4.00;1.00;;;;;12.82;100.00;101074.22;5057471;28;45350;-77
2023/03/12 08:16:57;;;;;;;;;4.00;2.00;;;;;12.83;100.00;101065.38;5056326;28;45239;-77
2023/03/12 08:19:23;;;;;;;;;11.67;3.00;;;;;12.83;100.00;101081.28;5056544;28;45648;-77
2023/03/12 08:21:50;;;;;;;;;5.33;3.00;;;;;12.85;100.00;101075.13;5056963;28;45484;-78
2023/03/12 08:24:16;;;;;;;;;2.00;1.00;;;;;12.91;100.00;101068.09;5056615;28;45561;-76
2023/03/12 08:26:41;;;;;;;;;3.33;1.67;;;;;12.97;100.00;101069.00;5056849;28;45746;-76
2023/03/12 08:29:07;;;;;;;;;6.00;3.00;;;;;13.02;100.00;101088.47;5056030;28;58658;-77
2023/03/12 08:31:32;;;;;;;;;9.00;1.00;;;;;13.03;100.00;101079.63;5055408;28;66638;-77
2023/03/12 08:33:57;;;;;;;;;6.00;2.00;;;;;13.07;100.00;101088.50;5056884;28;46685;-77
2023/03/12 08:36:23;;;;;;;;;11.00;2.33;;;;;13.11;100.00;101079.69;5055964;28;64855;-77
2023/03/12 08:38:48;;;;;;;;;1.67;1.33;;;;;13.17;100.00;101087.66;5055344;28;55965;-78
2023/03/12 08:41:13;;;;;;;;;9.00;2.00;;;;;13.23;100.00;101118.66;5055884;28;61734;-77
2023/03/12 08:43:39;;;;;;;;;5.00;2.00;;;;;13.29;100.00;101113.38;5055294;28;62422;-77
2023/03/12 08:46:04;;;;;;;;;6.00;1.00;;;;;13.35;100.00;101116.94;5054444;28;70963;-77
2023/03/12 08:48:30;;;;;;;;;6.00;2.00;;;;;13.39;100.00;101128.44;5054267;28;45289;-76
2023/03/12 08:50:57;;;;;;;;;9.00;3.33;;;;;13.44;100.00;101126.69;5056253;28;45485;-76
2023/03/12 08:53:24;;;;;;;;;8.67;2.00;;;;;13.49;100.00;101132.91;5056714;28;45544;-78
2023/03/12 08:55:53;;;;;;;;;9.67;3.00;;;;;13.47;100.00;101124.03;5048309;28;47782;-76
2023/03/12 08:58:19;;;;;;;;;5.00;4.00;;;;;13.49;100.00;101129.38;5053520;28;45641;-76
2023/03/12 09:00:45;;;;;;;;;7.00;2.00;;;;;13.49;100.00;101132.91;5055362;28;45217;-75
2023/03/12 09:03:13;;;;;;;;;6.67;3.00;;;;;13.56;100.00;101128.50;5054975;28;57911;-76
2023/03/12 09:05:39;;;;;;;;;7.33;1.33;;;;;13.59;100.00;101117.91;5055319;28;46638;-76
2023/03/12 09:08:04;;;;;;;;;6.67;3.00;;;;;13.60;100.00;101128.53;5055793;28;45394;-76
2023/03/12 09:10:30;;;;;;;;;3.67;2.00;;;;;13.63;100.00;101128.56;5056308;28;45319;-77
2023/03/12 09:12:55;;;;;;;;;1.33;1.00;;;;;13.72;100.00;101129.44;5052989;28;45367;-75
2023/03/12 09:15:20;;;;;;;;;5.33;2.00;;;;;13.80;100.00;101127.72;5053515;28;67492;-76
2023/03/12 09:17:46;;;;;;;;;4.00;2.67;;;;;13.84;100.00;101135.66;5043634;28;60096;-75
2023/03/12 09:20:15;;;;;;;;;6.33;2.00;;;;;13.88;100.00;101134.78;5049461;28;45485;-75
2023/03/12 09:22:42;;;;;;;;;6.00;2.00;;;;;13.92;100.00;101132.16;5049232;28;45802;-76
2023/03/12 09:25:09;;;;;;;;;3.67;2.00;;;;;13.95;100.00;101134.78;5047005;28;48463;-77
2023/03/12 09:27:38;;;;;;;;;8.67;3.00;;;;;13.99;100.00;101129.50;5052982;28;45457;-76
2023/03/12 09:30:05;;;;;;;;;7.33;1.33;;;;;14.05;100.00;101129.50;5051940;28;45667;-77
2023/03/12 09:32:31;;;;;;;;;3.67;2.67;;;;;14.07;100.00;101127.75;5050604;28;45648;-77
2023/03/12 09:34:56;;;;;;;;;4.67;2.00;;;;;14.11;100.00;101125.97;5053381;28;63418;-76
2023/03/12 09:37:22;;;;;;;;;3.00;1.00;;;;;14.19;100.00;101134.84;5051694;28;45402;-77
2023/03/12 09:39:49;;;;;;;;;7.00;2.00;;;;;14.25;100.00;101139.28;5055381;28;45338;-76
2023/03/12 09:42:23;;;;;;;;;3.00;1.00;;;;;14.34;100.00;101126.00;5054512;28;45509;-76
2023/03/12 09:44:49;;;;;;;;;5.33;2.00;;;;;14.44;100.00;101125.13;5049426;28;46942;-78
2023/03/12 09:47:25;;;;;;;;;4.00;1.00;;;;;14.51;100.00;101129.56;5047965;28;68004;-78
2023/03/12 09:49:55;;;;;;;;;3.33;2.00;;;;;14.51;100.00;101136.66;5045960;28;45560;-78
2023/03/12 09:52:38;;;;;;;;;6.00;2.00;;;;;14.41;100.00;101138.41;5055671;28;46348;-75
2023/03/12 09:55:18;;;;;;;;;6.33;2.00;;;;;14.29;100.00;101138.41;5057211;28;46470;-73
2023/03/12 09:57:45;;;;;;;;;5.67;3.00;;;;;14.12;100.00;101120.69;5054891;28;45534;-75
2023/03/12 10:00:14;;;;;;;;;4.33;1.00;;;;;14.04;100.00;101119.78;5059135;28;45350;-72
2023/03/12 10:03:00;;;;;;;;;3.33;1.00;;;;;14.03;100.00;101125.09;5058620;28;45430;-71
2023/03/12 10:05:34;;;;;;;;;6.33;2.00;;;;;13.94;100.00;101146.31;5054915;28;47068;-71
2023/03/12 10:08:08;;;;;;;;;3.33;1.00;;;;;13.83;100.00;101139.19;5053191;28;45490;-71
2023/03/12 10:10:47;;;;;;;;;6.67;2.00;;;;;13.80;100.00;101138.31;5057877;28;45342;-70
2023/03/12 10:13:18;;;;;;;;;4.00;1.00;;;;;13.84;100.00;101137.44;5057130;28;45597;-71
2023/03/12 10:16:04;;;;;;;;;1.33;0.67;;;;;13.95;100.00;101143.63;5051200;28;46562;-70
2023/03/12 10:18:58;;;;;;;;;4.67;1.67;;;;;14.06;100.00;101136.63;5055447;28;45465;-70
2023/03/12 10:21:49;;;;;;;;;5.00;1.00;;;;;14.20;100.00;101135.72;5054847;28;45447;-70
2023/03/12 10:24:27;;;;;;;;;4.67;2.00;;;;;14.32;100.00;101138.38;5051950;28;46678;-71
2023/03/12 10:26:55;;;;;;;;;4.00;1.00;;;;;14.38;100.00;101138.38;5057767;28;46628;-70
2023/03/12 10:29:29;;;;;;;;;8.00;2.33;;;;;14.43;100.00;101144.59;5039868;28;45416;-72
2023/03/12 10:32:02;;;;;;;;;11.67;2.00;;;;;14.43;100.00;101144.59;5051486;28;45553;-72
2023/03/12 10:34:36;;;;;;;;;5.00;2.00;;;;;14.40;100.00;101145.47;5052386;28;45602;-72
2023/03/12 10:37:13;;;;;;;;;5.33;1.67;;;;;14.38;100.00;101149.00;5053934;28;47438;-73
2023/03/12 10:39:39;;;;;;;;;3.67;1.00;;;;;14.40;100.00;101145.47;5054409;28;45544;-73
2023/03/12 10:42:13;;;;;;;;;2.00;2.00;;;;;14.44;100.00;101137.53;5057943;28;45415;-72
2023/03/12 10:44:39;;;;;;;;;3.00;2.00;;;;;14.49;100.00;101149.97;5057854;28;45520;-73
2023/03/12 10:47:11;;;;;;;;;4.67;1.33;;;;;14.51;100.00;101144.63;5058154;28;45759;-73
2023/03/12 10:49:37;;;;;;;;;7.67;1.00;;;;;14.51;100.00;101141.97;5055246;28;45707;-73
2023/03/12 10:52:17;;;;;;;;;3.00;2.00;;;;;14.55;100.00;101144.63;5058321;28;45324;-73
2023/03/12 10:54:47;;;;;;;;;4.67;1.00;;;;;14.59;100.00;101138.41;5056085;28;45702;-73
2023/03/12 10:57:14;;;;;;;;;4.67;1.33;;;;;14.63;100.00;101140.19;5057778;28;46020;-73
2023/03/12 10:59:42;;;;;;;;;5.67;2.00;;;;;14.62;100.00;101142.84;5055430;28;45480;-74
2023/03/12 11:02:29;;;;;;;;;3.00;1.67;;;;;14.60;100.00;101142.88;5057812;28;46144;-73
2023/03/12 11:04:54;;;;;;;;;7.33;2.67;;;;;14.48;100.00;101134.00;5057350;28;45664;-71
2023/03/12 11:07:26;;;;;;;;;7.33;2.67;;;;;14.48;100.00;101140.19;5054408;28;46385;-72
2023/03/12 11:10:38;;;;;;;;;3.00;3.00;;;;;14.51;100.00;101126.03;5054682;28;45644;-71
2023/03/12 11:13:08;;;;;;;;;7.00;1.33;;;;;14.55;100.00;101133.13;5054617;28;45651;-76
2023/03/12 11:15:41;;;;;;;;;4.33;2.00;;;;;14.60;100.00;101141.97;5048476;28;45662;-80
2023/03/12 11:18:18;;;;;;;;;1.67;1.00;;;;;14.62;100.00;101138.44;5040645;28;46715;-79